Time;durP1;ratioP1;P1;durP2;ratioP2;P2;SDS_P1;SDS_P2;PMS_P1;PMS_P2;Temp;Humidity;BMP_temperature;BMP_pressure;BME280_temperature;BME280_humidity;BME280_pressure;Samples;Min_cycle;Max_cycle;Signal;HPM_P1;HPM_P2
2022/05/08 00:01:11;;;;;;;10.27;9.48;;;;;;;13.70;79.00;101739.91;4993074;28;20821;-70
2022/05/08 00:03:36;;;;;;;9.98;9.18;;;;;;;13.77;78.91;101740.22;4980634;28;20382;-69
2022/05/08 00:06:07;;;;;;;10.85;9.88;;;;;;;13.78;78.70;101738.41;4946390;28;21085;-70
2022/05/08 00:08:32;;;;;;;13.77;10.65;;;;;;;13.62;79.21;101738.88;4965282;28;20091;-70
2022/05/08 00:10:57;;;;;;;10.75;9.75;;;;;;;13.58;79.36;101730.34;4935905;28;20007;-70
2022/05/08 00:13:23;;;;;;;11.48;10.40;;;;;;;13.69;78.47;101732.91;4945866;28;20101;-71
2022/05/08 00:15:48;;;;;;;11.85;10.48;;;;;;;13.66;78.22;101737.63;4938818;28;20018;-70
2022/05/08 00:18:14;;;;;;;11.65;10.60;;;;;;;13.68;78.36;101738.38;4989319;28;20017;-70
2022/05/08 00:20:39;;;;;;;12.23;10.82;;;;;;;13.52;78.83;101742.34;5006954;28;20327;-70
2022/05/08 00:23:04;;;;;;;12.13;10.93;;;;;;;13.52;79.12;101736.16;4988941;28;20026;-71
2022/05/08 00:25:30;;;;;;;11.85;10.63;;;;;;;13.47;78.56;101743.72;4991266;28;20245;-70
2022/05/08 00:27:55;;;;;;;12.90;11.80;;;;;;;13.33;79.75;101743.03;4987407;28;20091;-70
2022/05/08 00:30:21;;;;;;;13.02;11.73;;;;;;;13.28;80.43;101739.91;4971624;28;20010;-70
2022/05/08 00:32:46;;;;;;;15.52;11.20;;;;;;;13.11;80.75;101740.50;5016627;28;20522;-70
2022/05/08 00:35:11;;;;;;;12.43;11.40;;;;;;;13.22;80.37;101738.59;5039390;28;20566;-70
2022/05/08 00:37:38;;;;;;;12.80;11.60;;;;;;;13.12;80.65;101740.38;4988819;28;20792;-70
2022/05/08 00:40:04;;;;;;;12.25;11.10;;;;;;;13.09;80.54;101745.13;4978548;28;20069;-70
2022/05/08 00:42:29;;;;;;;13.07;11.77;;;;;;;13.06;80.88;101740.91;4974377;28;20017;-70
2022/05/08 00:44:54;;;;;;;12.95;11.63;;;;;;;12.99;81.35;101743.22;4953395;28;20017;-70
2022/05/08 00:47:20;;;;;;;14.60;11.98;;;;;;;12.98;81.19;101744.19;4960815;28;20802;-70
2022/05/08 00:49:45;;;;;;;13.30;11.98;;;;;;;12.95;81.07;101739.13;4980417;28;20025;-71
2022/05/08 00:52:11;;;;;;;13.75;12.38;;;;;;;12.96;81.46;101735.50;4980831;28;20017;-70
2022/05/08 00:54:36;;;;;;;13.13;11.93;;;;;;;12.99;81.13;101739.72;4980953;28;20739;-70
2022/05/08 00:57:02;;;;;;;14.55;13.25;;;;;;;12.85;81.47;101743.53;4981796;28;20578;-70
2022/05/08 00:59:27;;;;;;;16.48;13.48;;;;;;;12.84;82.35;101747.13;4977085;28;20040;-70
2022/05/08 01:01:52;;;;;;;14.95;13.45;;;;;;;12.97;81.96;101734.53;4980011;28;20012;-70
2022/05/08 01:04:18;;;;;;;15.90;14.40;;;;;;;13.03;81.72;101739.31;4978522;28;20397;-70
2022/05/08 01:06:44;;;;;;;15.77;14.38;;;;;;;13.01;81.79;101738.59;4979443;28;20027;-70
2022/05/08 01:09:09;;;;;;;15.02;13.63;;;;;;;13.07;81.41;101737.25;4963859;27;20017;-70
2022/05/08 01:11:35;;;;;;;16.10;14.45;;;;;;;12.95;82.08;101736.47;5013947;28;20398;-70
2022/05/08 01:14:01;;;;;;;18.42;14.95;;;;;;;12.98;81.79;101735.38;4980222;28;20037;-71
2022/05/08 01:16:26;;;;;;;18.65;14.43;;;;;;;13.00;81.66;101741.38;4996613;28;20029;-71
2022/05/08 01:18:52;;;;;;;14.90;13.60;;;;;;;12.94;81.78;101736.59;4962729;28;20132;-70
2022/05/08 01:21:18;;;;;;;14.95;13.57;;;;;;;12.98;81.69;101738.84;5015544;28;20819;-70
2022/05/08 01:23:44;;;;;;;15.70;14.07;;;;;;;13.04;82.13;101743.69;4994700;28;20053;-69
2022/05/08 01:26:10;;;;;;;14.32;13.00;;;;;;;13.19;81.96;101746.00;4978584;28;20005;-70
2022/05/08 01:28:35;;;;;;;15.48;14.05;;;;;;;13.12;81.86;101745.69;4978271;28;20014;-70
2022/05/08 01:31:00;;;;;;;15.73;13.98;;;;;;;13.05;82.55;101745.34;4993185;28;20081;-69
2022/05/08 01:33:26;;;;;;;16.48;14.98;;;;;;;13.04;82.73;101743.69;4997617;28;20041;-70
2022/05/08 01:35:51;;;;;;;15.43;14.02;;;;;;;13.20;82.61;101747.72;4981777;28;20017;-71
2022/05/08 01:38:18;;;;;;;16.35;14.82;;;;;;;13.22;82.43;101745.75;4976717;28;20241;-70
2022/05/08 01:40:44;;;;;;;16.85;15.25;;;;;;;13.24;82.43;101749.13;4980313;28;20440;-71
2022/05/08 01:43:10;;;;;;;17.30;15.73;;;;;;;13.20;82.65;101742.41;4964254;28;20099;-71
2022/05/08 01:45:37;;;;;;;18.52;15.63;;;;;;;13.24;82.44;101743.81;4964784;28;20094;-71
2022/05/08 01:50:46;;;;;;;17.38;15.68;;;;;;;13.31;82.54;101744.97;4985766;28;20016;-70
2022/05/08 01:53:11;;;;;;;20.63;17.15;;;;;;;13.28;82.98;101749.72;4980802;28;20041;-70
2022/05/08 01:55:37;;;;;;;20.35;18.25;;;;;;;13.33;82.98;101756.31;4986545;28;20190;-69
2022/05/08 01:58:02;;;;;;;21.25;19.08;;;;;;;13.35;83.15;101756.22;4997865;28;20713;-70
2022/05/08 02:00:28;;;;;;;22.13;18.23;;;;;;;13.36;82.54;101753.44;4968216;28;20828;-70
2022/05/08 02:02:54;;;;;;;20.58;18.48;;;;;;;13.48;81.93;101753.34;4956336;28;20014;-71
2022/05/08 02:05:20;;;;;;;18.85;17.05;;;;;;;13.42;81.74;101760.03;4963148;28;20023;-70
2022/05/08 02:07:46;;;;;;;19.08;17.10;;;;;;;13.37;81.87;101755.13;4964994;28;20010;-71
2022/05/08 02:10:12;;;;;;;19.48;17.38;;;;;;;13.42;81.36;101759.22;4982550;28;20021;-70
2022/05/08 02:12:37;;;;;;;18.90;17.08;;;;;;;13.39;81.35;101753.16;4967608;28;20017;-70
2022/05/08 02:15:03;;;;;;;16.88;15.35;;;;;;;13.32;81.19;101757.28;5003537;28;20204;-70
2022/05/08 02:17:28;;;;;;;17.80;16.20;;;;;;;13.34;81.44;101759.81;4958726;28;19998;-70
2022/05/08 02:19:54;;;;;;;18.23;16.30;;;;;;;13.30;81.21;101753.94;4980350;28;20079;-70
2022/05/08 02:22:20;;;;;;;19.20;16.38;;;;;;;13.30;81.10;101755.75;4983294;28;20014;-70
2022/05/08 02:24:45;;;;;;;19.00;16.13;;;;;;;13.28;81.08;101749.72;4984089;28;20123;-70
2022/05/08 02:27:10;;;;;;;17.60;15.57;;;;;;;13.25;80.94;101756.13;5005150;28;20028;-70
2022/05/08 02:29:36;;;;;;;16.85;15.15;;;;;;;13.23;81.20;101750.94;4961653;28;20727;-70
2022/05/08 02:32:01;;;;;;;16.75;15.02;;;;;;;13.21;80.71;101755.56;4946378;28;20013;-70
2022/05/08 02:34:27;;;;;;;17.48;15.68;;;;;;;13.19;80.97;101765.44;4962341;28;20034;-70
2022/05/08 02:36:52;;;;;;;17.40;15.70;;;;;;;13.19;80.58;101759.31;4981904;28;20031;-70
2022/05/08 02:39:17;;;;;;;17.30;15.70;;;;;;;13.19;80.71;101767.28;4980237;28;20072;-70
2022/05/08 02:41:43;;;;;;;16.58;15.02;;;;;;;13.09;80.87;101766.38;5000673;28;20018;-70
2022/05/08 02:44:08;;;;;;;15.88;14.18;;;;;;;13.08;80.96;101756.69;5020042;28;20018;-70
2022/05/08 02:46:34;;;;;;;16.73;15.00;;;;;;;13.07;80.79;101761.16;4990522;28;20075;-70
2022/05/08 02:48:59;;;;;;;17.38;15.63;;;;;;;13.03;80.65;101762.41;4967453;28;20033;-70
2022/05/08 02:51:24;;;;;;;16.67;14.90;;;;;;;12.98;81.02;101767.25;4992471;28;20102;-70
2022/05/08 02:53:50;;;;;;;16.60;15.00;;;;;;;12.90;81.23;101775.84;4983560;28;20022;-70
2022/05/08 02:58:59;;;;;;;15.77;14.25;;;;;;;12.98;80.30;101776.06;5013539;28;20044;-70
2022/05/08 03:01:25;;;;;;;15.32;13.73;;;;;;;13.06;79.65;101762.16;5004322;28;20914;-71
2022/05/08 03:03:50;;;;;;;15.77;14.18;;;;;;;13.07;79.43;101758.50;5003825;28;20047;-71
2022/05/08 03:06:16;;;;;;;15.18;13.77;;;;;;;13.00;79.53;101774.13;4977220;28;20958;-70
2022/05/08 03:08:41;;;;;;;15.40;13.90;;;;;;;12.96;79.72;101775.34;4985934;28;20074;-70
2022/05/08 03:13:50;;;;;;;15.52;14.02;;;;;;;12.94;79.60;101779.09;5015256;28;20129;-71
2022/05/08 03:16:16;;;;;;;15.27;13.80;;;;;;;12.97;79.65;101779.72;4975566;28;20022;-70
2022/05/08 03:18:41;;;;;;;16.67;13.45;;;;;;;12.91;79.66;101784.69;5002746;28;20029;-71
2022/05/08 03:21:09;;;;;;;15.93;13.32;;;;;;;12.69;80.18;101779.31;5008870;28;20868;-70
2022/05/08 03:23:35;;;;;;;14.27;12.52;;;;;;;12.68;80.22;101785.59;5022467;27;20120;-69
2022/05/08 03:26:01;;;;;;;14.80;12.93;;;;;;;12.73;79.58;101781.72;5006965;28;20005;-70
2022/05/08 03:28:27;;;;;;;13.90;12.52;;;;;;;12.68;79.47;101780.28;4996777;28;20725;-70
2022/05/08 03:30:52;;;;;;;13.93;12.63;;;;;;;12.63;79.47;101771.81;4989147;28;20116;-70
2022/05/08 03:33:18;;;;;;;13.15;11.93;;;;;;;12.62;79.51;101772.81;5008287;28;20140;-71
2022/05/08 03:35:43;;;;;;;13.60;12.20;;;;;;;12.62;79.58;101780.78;5010404;28;20005;-70
2022/05/08 03:38:08;;;;;;;13.00;11.70;;;;;;;12.58;79.30;101774.03;4993567;28;20309;-70
2022/05/08 03:40:34;;;;;;;14.35;12.05;;;;;;;12.46;79.82;101783.81;5008889;28;20005;-70
2022/05/08 03:43:00;;;;;;;13.80;11.77;;;;;;;12.47;79.43;101777.53;4988592;28;20774;-70
2022/05/08 03:45:25;;;;;;;12.70;11.50;;;;;;;12.39;79.84;101779.13;4992284;27;20128;-70
2022/05/08 03:47:51;;;;;;;13.20;11.73;;;;;;;12.36;79.66;101790.84;5007761;28;20783;-70
2022/05/08 03:50:18;;;;;;;13.65;12.10;;;;;;;12.36;79.33;101796.97;5038321;27;20021;-71
2022/05/08 03:52:43;;;;;;;12.88;11.57;;;;;;;12.26;80.13;101801.34;5027491;28;20036;-71
2022/05/08 03:55:09;;;;;;;13.95;11.65;;;;;;;12.37;79.28;101790.72;5017705;28;20030;-70
2022/05/08 03:57:34;;;;;;;12.27;11.05;;;;;;;12.28;79.40;101788.81;4998964;28;20010;-69
2022/05/08 03:59:59;;;;;;;11.95;10.80;;;;;;;12.29;79.78;101794.94;5033744;27;20337;-70
2022/05/08 04:02:25;;;;;;;12.13;10.93;;;;;;;12.16;80.14;101795.91;5004881;28;20027;-71
2022/05/08 04:04:51;;;;;;;12.20;10.85;;;;;;;12.14;80.46;101797.84;4976231;28;20782;-69
2022/05/08 04:07:16;;;;;;;12.25;11.05;;;;;;;12.29;79.72;101800.25;4976031;28;20101;-69
2022/05/08 04:09:42;;;;;;;11.63;10.52;;;;;;;12.36;79.63;101801.44;4996294;28;20335;-70
2022/05/08 04:12:07;;;;;;;11.88;10.68;;;;;;;12.27;80.23;101803.03;4994598;28;20009;-70
2022/05/08 04:14:32;;;;;;;11.30;10.30;;;;;;;12.42;79.68;101794.81;4994439;28;20579;-69
2022/05/08 04:16:59;;;;;;;11.65;10.55;;;;;;;12.39;80.16;101795.91;5011266;28;20430;-70
2022/05/08 04:19:24;;;;;;;11.70;10.50;;;;;;;12.44;79.91;101800.84;4979650;28;20021;-69
2022/05/08 04:21:50;;;;;;;11.88;10.52;;;;;;;12.32;80.01;101808.84;5013442;28;20957;-70
2022/05/08 04:24:18;;;;;;;12.18;10.80;;;;;;;12.31;80.79;101804.47;4973454;27;20378;-70
2022/05/08 04:26:44;;;;;;;13.07;10.93;;;;;;;12.25;81.01;101793.50;4994101;28;20029;-70
2022/05/08 04:29:09;;;;;;;12.85;11.55;;;;;;;12.28;80.66;101793.25;4991998;28;20099;-71
2022/05/08 04:31:34;;;;;;;12.18;10.95;;;;;;;12.28;80.32;101807.38;4983329;28;20811;-70
2022/05/08 04:34:01;;;;;;;11.60;10.50;;;;;;;12.35;80.06;101808.59;4970271;28;20612;-70
2022/05/08 04:36:26;;;;;;;12.73;10.48;;;;;;;12.39;79.72;101813.63;4950375;28;20006;-70
2022/05/08 04:38:52;;;;;;;11.60;10.45;;;;;;;12.42;79.57;101816.88;4976567;28;20064;-70
2022/05/08 04:41:18;;;;;;;11.27;10.07;;;;;;;12.47;79.21;101824.50;4978466;28;20052;-70
2022/05/08 04:43:43;;;;;;;13.00;10.95;;;;;;;12.52;79.15;101831.13;4995743;28;20951;-70
2022/05/08 04:46:10;;;;;;;13.02;10.85;;;;;;;12.57;78.56;101828.09;4976388;28;20507;-70
2022/05/08 04:48:35;;;;;;;12.23;10.20;;;;;;;12.59;78.53;101822.66;4961440;28;20074;-71
2022/05/08 04:51:01;;;;;;;12.65;10.85;;;;;;;12.77;78.00;101825.66;4976474;28;20859;-70
2022/05/08 04:53:26;;;;;;;13.25;11.20;;;;;;;12.74;78.04;101825.91;4997607;28;20522;-70
2022/05/08 04:55:52;;;;;;;12.32;11.10;;;;;;;12.80;77.32;101836.00;4980625;28;20147;-70
2022/05/08 04:58:17;;;;;;;12.10;10.73;;;;;;;12.70;77.69;101839.44;5023111;27;20005;-70
2022/05/08 05:00:42;;;;;;;12.15;10.95;;;;;;;12.73;77.70;101830.34;4959134;28;20021;-72
2022/05/08 05:03:08;;;;;;;12.57;11.27;;;;;;;12.80;77.60;101839.50;4993893;28;20041;-72
2022/05/08 05:05:34;;;;;;;13.13;10.98;;;;;;;12.83;77.79;101830.44;4995659;28;20005;-72
2022/05/08 05:07:59;;;;;;;11.93;10.80;;;;;;;12.95;77.13;101834.75;5012996;28;20028;-72
2022/05/08 05:10:25;;;;;;;11.70;10.60;;;;;;;12.94;77.08;101848.19;4994432;28;20019;-72
2022/05/08 05:12:51;;;;;;;12.13;10.90;;;;;;;12.96;77.18;101849.75;4977380;28;20032;-72
2022/05/08 05:15:18;;;;;;;11.65;10.43;;;;;;;12.95;75.82;101855.19;4982522;28;20087;-71
2022/05/08 05:17:43;;;;;;;13.27;11.35;;;;;;;12.87;75.22;101859.31;4972688;28;20746;-72
2022/05/08 05:20:09;;;;;;;12.60;10.45;;;;;;;12.80;75.88;101865.22;4987532;28;20010;-72
2022/05/08 05:22:35;;;;;;;12.30;11.10;;;;;;;12.81;75.43;101864.28;4971970;28;20006;-71
2022/05/08 05:25:02;;;;;;;13.45;11.13;;;;;;;12.80;74.96;101862.56;4972800;28;20006;-72
2022/05/08 05:27:27;;;;;;;12.75;10.85;;;;;;;12.72;75.32;101871.19;4976127;28;20164;-71
2022/05/08 05:29:53;;;;;;;15.00;11.50;;;;;;;12.79;75.73;101880.34;4953512;28;20022;-72
2022/05/08 05:32:18;;;;;;;12.70;11.40;;;;;;;12.77;75.27;101878.75;4994969;28;20021;-71
2022/05/08 05:34:43;;;;;;;11.80;10.60;;;;;;;12.81;75.33;101880.22;4975834;28;20025;-71
2022/05/08 05:37:09;;;;;;;15.02;10.98;;;;;;;12.80;74.85;101884.66;4994869;28;20354;-72
2022/05/08 05:39:34;;;;;;;12.38;11.13;;;;;;;12.83;75.08;101880.91;4976632;28;20041;-72
2022/05/08 05:42:00;;;;;;;12.40;11.10;;;;;;;12.85;74.58;101893.13;4957932;28;20002;-72
2022/05/08 05:44:26;;;;;;;13.50;11.35;;;;;;;12.79;74.63;101890.09;4976210;28;20132;-72
2022/05/08 05:49:39;;;;;;;12.98;11.35;;;;;;;12.71;73.82;101893.38;4962594;28;20542;-71
2022/05/08 05:52:08;;;;;;;15.70;12.25;;;;;;;12.75;73.47;101893.97;4967210;28;20117;-72
2022/05/08 05:54:33;;;;;;;13.73;11.60;;;;;;;12.74;73.11;101900.25;4975946;28;20030;-72
2022/05/08 05:56:58;;;;;;;13.02;11.73;;;;;;;12.74;73.02;101903.75;4989833;28;20232;-72
2022/05/08 05:59:24;;;;;;;13.98;12.00;;;;;;;12.74;73.38;101902.91;4977381;28;20420;-72
2022/05/08 06:01:49;;;;;;;12.82;11.43;;;;;;;12.71;72.89;101907.50;4956367;28;20026;-71
2022/05/08 06:04:14;;;;;;;14.10;11.40;;;;;;;12.79;72.87;101901.59;4974552;28;20009;-71
2022/05/08 06:06:40;;;;;;;13.35;11.15;;;;;;;12.74;73.11;101906.41;4993132;28;20427;-73
2022/05/08 06:09:07;;;;;;;13.85;12.43;;;;;;;12.63;73.00;101901.94;4960390;28;20017;-71
2022/05/08 06:11:32;;;;;;;15.30;12.00;;;;;;;12.71;72.99;101907.50;4997168;28;20021;-71
2022/05/08 06:13:57;;;;;;;13.45;11.75;;;;;;;12.88;72.96;101911.47;4996477;28;20041;-71
2022/05/08 06:16:23;;;;;;;12.95;11.32;;;;;;;13.04;72.03;101913.75;5006333;28;20242;-72
2022/05/08 06:18:48;;;;;;;12.65;11.35;;;;;;;13.18;71.91;101909.09;4983095;28;20126;-71
2022/05/08 06:21:13;;;;;;;15.25;12.18;;;;;;;13.19;71.35;101908.97;4996091;28;20817;-72
2022/05/08 06:23:39;;;;;;;14.80;11.63;;;;;;;12.99;71.77;101915.91;4979504;28;20438;-72
2022/05/08 06:26:04;;;;;;;15.50;11.80;;;;;;;13.04;71.87;101904.91;4969436;28;20074;-71
2022/05/08 06:28:31;;;;;;;12.45;10.75;;;;;;;13.25;72.06;101915.59;4965572;28;20007;-72
2022/05/08 06:30:56;;;;;;;14.95;11.05;;;;;;;13.50;70.84;101910.97;4956930;28;20538;-71
2022/05/08 06:33:22;;;;;;;14.77;11.60;;;;;;;13.61;70.09;101910.06;4943433;28;20424;-72
2022/05/08 06:35:47;;;;;;;13.73;11.10;;;;;;;13.47;69.62;101909.41;4950952;28;20022;-72
2022/05/08 06:38:12;;;;;;;14.63;10.45;;;;;;;13.34;69.65;101906.88;4967860;27;20068;-72
2022/05/08 06:40:39;;;;;;;13.25;10.02;;;;;;;13.52;69.96;101911.69;4966226;28;21047;-72
2022/05/08 06:43:05;;;;;;;13.50;9.63;;;;;;;13.80;69.26;101914.69;4949942;28;20121;-72
2022/05/08 06:45:30;;;;;;;16.25;10.20;;;;;;;13.77;68.73;101914.97;5001971;28;20014;-72
2022/05/08 06:47:55;;;;;;;11.93;9.60;;;;;;;13.87;68.49;101916.69;5001879;28;20025;-72
2022/05/08 06:50:21;;;;;;;13.25;10.23;;;;;;;13.95;67.38;101908.06;5007186;28;20021;-71
2022/05/08 06:52:46;;;;;;;14.25;9.68;;;;;;;13.93;66.57;101922.47;4986706;28;21021;-72
2022/05/08 06:55:12;;;;;;;11.85;9.25;;;;;;;13.83;67.01;101917.97;4991151;27;20495;-72
2022/05/08 06:57:37;;;;;;;10.15;8.68;;;;;;;14.14;66.33;101914.50;5005916;28;20192;-71
2022/05/08 07:02:48;;;;;;;12.75;9.45;;;;;;;14.35;65.38;101928.59;5021487;28;20437;-72
2022/05/08 07:05:13;;;;;;;12.60;9.80;;;;;;;14.39;65.88;101924.72;5007097;28;20013;-72
2022/05/08 07:07:38;;;;;;;14.95;9.70;;;;;;;14.16;64.50;101925.88;5029453;28;20146;-72
2022/05/08 07:10:04;;;;;;;13.88;9.50;;;;;;;14.32;66.01;101925.38;5007414;28;20384;-73
2022/05/08 07:12:30;;;;;;;13.90;8.50;;;;;;;14.51;64.38;101929.94;4981865;28;20020;-72
2022/05/08 07:14:55;;;;;;;17.17;8.50;;;;;;;14.58;65.29;101931.09;4976174;28;20046;-72
2022/05/08 07:17:21;;;;;;;9.55;7.88;;;;;;;14.81;64.56;101936.28;4998859;28;20017;-72
2022/05/08 07:19:48;;;;;;;11.93;7.65;;;;;;;14.83;63.33;101939.66;5016236;28;20025;-72
2022/05/08 07:22:15;;;;;;;12.32;7.55;;;;;;;14.92;63.33;101938.84;4977468;28;20001;-71
2022/05/08 07:24:41;;;;;;;9.55;6.93;;;;;;;14.99;63.38;101939.97;4981125;28;20097;-73
2022/05/08 07:27:06;;;;;;;9.75;6.97;;;;;;;15.16;63.81;101941.13;4973654;28;20527;-74
2022/05/08 07:29:32;;;;;;;10.77;7.43;;;;;;;15.24;62.11;101937.78;4975675;28;20246;-72
2022/05/08 07:31:58;;;;;;;11.75;7.10;;;;;;;15.24;61.55;101949.31;4990826;28;20018;-71
2022/05/08 07:37:07;;;;;;;10.20;7.32;;;;;;;15.21;61.50;101946.06;4973613;28;20075;-71
2022/05/08 07:39:33;;;;;;;14.00;7.57;;;;;;;15.25;61.58;101944.78;4978593;28;20969;-71
2022/05/08 07:41:59;;;;;;;12.50;8.10;;;;;;;14.98;61.96;101953.44;5006899;28;20714;-71
2022/05/08 07:44:24;;;;;;;10.20;7.63;;;;;;;15.09;61.66;101951.50;4993386;28;20783;-71
2022/05/08 07:46:51;;;;;;;10.75;7.15;;;;;;;15.37;62.47;101951.69;4962950;28;20076;-71
2022/05/08 07:49:16;;;;;;;12.75;7.78;;;;;;;15.37;61.64;101959.69;4940903;28;20469;-71
2022/05/08 07:51:42;;;;;;;10.73;7.40;;;;;;;15.46;61.47;101953.50;4968377;28;20012;-71
2022/05/08 07:54:08;;;;;;;11.73;8.00;;;;;;;15.50;61.83;101955.91;4944166;28;20026;-71
2022/05/08 07:56:34;;;;;;;10.80;7.80;;;;;;;15.53;61.71;101960.97;4960333;28;20022;-72
2022/05/08 07:58:59;;;;;;;13.82;8.30;;;;;;;15.49;61.22;101957.72;4963139;28;20017;-72
2022/05/08 08:01:25;;;;;;;12.38;8.20;;;;;;;15.53;61.32;101960.97;4972213;28;20214;-73
2022/05/08 08:03:50;;;;;;;15.82;8.63;;;;;;;15.60;61.34;101967.44;4999392;28;20115;-73
2022/05/08 08:06:16;;;;;;;12.23;7.82;;;;;;;15.59;61.78;101971.09;4961888;28;20022;-72
2022/05/08 08:08:41;;;;;;;11.88;7.80;;;;;;;15.62;61.65;101969.00;4981321;28;20021;-73
2022/05/08 08:11:07;;;;;;;12.32;7.88;;;;;;;15.57;60.54;101970.41;4966181;28;20105;-72
2022/05/08 08:13:32;;;;;;;10.32;7.45;;;;;;;15.62;60.64;101973.47;4996799;28;20269;-73
2022/05/08 08:15:58;;;;;;;13.77;7.75;;;;;;;15.56;60.46;101974.88;4976868;28;20087;-73
2022/05/08 08:18:23;;;;;;;11.07;6.85;;;;;;;15.56;60.50;101980.19;4962808;28;20108;-73
2022/05/08 08:20:49;;;;;;;8.05;7.20;;;;;;;15.68;60.93;101975.59;4981081;28;20021;-72
2022/05/08 08:23:14;;;;;;;13.68;7.25;;;;;;;15.92;60.63;101985.88;4965903;28;20193;-72
2022/05/08 08:25:40;;;;;;;11.48;6.90;;;;;;;16.03;59.00;101984.84;4986076;28;20117;-73
2022/05/08 08:28:05;;;;;;;8.88;6.70;;;;;;;16.08;59.07;101979.94;4981210;28;20723;-73
2022/05/08 08:30:31;;;;;;;13.05;7.00;;;;;;;16.24;58.61;101984.69;4947003;28;20953;-73
2022/05/08 08:32:56;;;;;;;10.70;6.82;;;;;;;16.25;59.22;101985.53;4956394;28;20022;-73
2022/05/08 08:35:22;;;;;;;8.88;6.10;;;;;;;16.26;58.92;101988.06;4973534;28;20314;-72
2022/05/08 08:37:47;;;;;;;10.50;6.45;;;;;;;16.28;57.99;101990.59;4946985;28;20129;-74
2022/05/08 08:40:13;;;;;;;8.95;5.60;;;;;;;16.46;58.23;101986.19;4969953;28;20483;-73
2022/05/08 08:42:42;;;;;;;11.15;6.55;;;;;;;16.71;58.19;101999.03;4962484;28;20168;-73
2022/05/08 08:48:05;;;;;;;8.30;5.82;;;;;;;17.52;57.34;101995.69;4961636;28;20929;-72
2022/05/08 08:50:32;;;;;;;7.60;5.68;;;;;;;17.82;55.73;102002.50;4972672;28;20030;-73
2022/05/08 08:52:58;;;;;;;8.77;5.97;;;;;;;17.85;55.27;101995.97;4944598;28;20018;-74
2022/05/08 08:55:23;;;;;;;10.95;6.82;;;;;;;18.12;54.06;101996.91;4962726;28;20467;-72
2022/05/08 08:57:49;;;;;;;8.23;5.57;;;;;;;18.39;54.93;101995.06;4957421;28;20027;-72
2022/05/08 09:00:15;;;;;;;9.85;5.72;;;;;;;18.50;54.42;101989.44;4963254;28;20879;-74
2022/05/08 09:02:41;;;;;;;7.60;5.15;;;;;;;18.59;53.20;101983.16;4977328;28;20270;-73
2022/05/08 09:05:07;;;;;;;9.25;5.45;;;;;;;18.49;52.50;101988.63;4944673;28;20017;-72
2022/05/08 09:07:45;;;;;;;7.00;4.78;;;;;;;18.54;52.10;101986.31;4996504;28;20266;-73
2022/05/08 09:10:20;;;;;;;8.98;5.50;;;;;;;18.30;51.50;101983.47;4971428;28;20874;-72
2022/05/08 09:12:52;;;;;;;8.00;5.00;;;;;;;18.25;51.97;101985.81;4972470;28;20034;-73
2022/05/08 09:15:31;;;;;;;8.65;5.03;;;;;;;18.62;52.30;101982.00;4993457;28;20041;-72
2022/05/08 09:18:01;;;;;;;8.57;5.20;;;;;;;18.52;53.50;101988.31;4981089;28;20017;-73
2022/05/08 09:20:29;;;;;;;7.65;4.70;;;;;;;18.73;52.91;101978.19;4975406;28;20024;-74
2022/05/08 09:23:17;;;;;;;7.03;4.90;;;;;;;19.11;53.17;101984.91;4970054;28;20346;-73
2022/05/08 09:26:02;;;;;;;6.90;4.30;;;;;;;19.65;50.37;101989.88;4970445;28;20030;-73
2022/05/08 09:28:41;;;;;;;7.45;4.38;;;;;;;19.92;51.01;101981.72;4978729;28;20099;-73
2022/05/08 09:31:10;;;;;;;8.63;4.60;;;;;;;19.93;49.32;101978.03;4959905;28;20987;-73
2022/05/08 09:33:42;;;;;;;9.02;4.50;;;;;;;19.97;50.14;101976.69;4976502;28;20053;-73
2022/05/08 09:36:21;;;;;;;6.93;4.43;;;;;;;20.16;48.83;101978.97;4995118;28;20056;-73
2022/05/08 09:38:56;;;;;;;6.55;4.00;;;;;;;19.84;49.82;101983.38;4965409;28;20038;-73
2022/05/08 09:41:22;;;;;;;6.38;4.13;;;;;;;20.05;47.69;101982.03;4960129;28;20018;-74
2022/05/08 09:43:49;;;;;;;5.30;3.67;;;;;;;20.52;47.35;101975.91;4969573;28;20025;-73
2022/05/08 09:46:15;;;;;;;7.05;3.53;;;;;;;21.04;45.02;101990.69;4974150;28;20270;-73
2022/05/08 09:48:40;;;;;;;9.70;3.17;;;;;;;20.94;43.86;101995.47;4948009;28;20110;-72
2022/05/08 09:51:13;;;;;;;4.40;2.88;;;;;;;20.87;44.69;101978.31;4976700;28;20030;-73
2022/05/08 09:53:39;;;;;;;2.67;2.47;;;;;;;20.68;43.72;101987.66;4972598;28;20033;-72
2022/05/08 09:56:06;;;;;;;4.43;2.85;;;;;;;20.53;44.83;101985.66;4988061;28;21099;-73
2022/05/08 09:58:32;;;;;;;3.08;2.67;;;;;;;20.30;43.77;101995.44;4975207;28;20057;-72
2022/05/08 10:00:57;;;;;;;3.85;2.67;;;;;;;20.21;43.03;101987.38;4972788;28;20002;-73
2022/05/08 10:03:23;;;;;;;5.25;2.83;;;;;;;19.85;47.21;101981.53;4963805;28;20121;-72
2022/05/08 10:05:49;;;;;;;5.30;2.83;;;;;;;20.06;47.40;101972.97;4974933;28;20021;-72
2022/05/08 10:08:37;;;;;;;5.13;2.60;;;;;;;19.99;44.07;101974.66;4979564;28;20211;-73
2022/05/08 10:14:03;;;;;;;4.28;2.50;;;;;;;21.06;43.37;101980.59;5028336;28;20049;-72
2022/05/08 10:16:48;;;;;;;4.88;2.22;;;;;;;21.40;42.00;101979.38;5009705;28;20036;-73
2022/05/08 10:19:23;;;;;;;4.72;1.98;;;;;;;21.82;41.45;101977.25;5031078;28;20409;-72
2022/05/08 10:21:59;;;;;;;2.75;2.00;;;;;;;22.23;40.47;101968.78;5050589;28;20428;-72
2022/05/08 10:24:32;;;;;;;4.80;2.03;;;;;;;22.15;40.33;101973.41;5035694;28;20184;-71
2022/05/08 10:27:16;;;;;;;8.35;4.90;;;;;;;21.98;40.12;101970.88;4978854;28;20458;-72
2022/05/08 10:29:46;;;;;;;4.05;2.30;;;;;;;21.77;39.70;101971.56;4993640;28;20035;-72
2022/05/08 10:32:14;;;;;;;3.97;2.10;;;;;;;21.75;43.09;101968.22;5000921;28;20790;-72
2022/05/08 10:34:40;;;;;;;4.15;2.40;;;;;;;22.18;40.96;101971.22;4995831;28;20250;-72
2022/05/08 10:37:11;;;;;;;4.90;2.30;;;;;;;22.53;38.71;101957.19;4989221;28;20153;-70
2022/05/08 10:39:43;;;;;;;3.83;2.38;;;;;;;22.71;36.95;101954.94;5016642;28;20080;-72
2022/05/08 10:42:24;;;;;;;2.65;1.90;;;;;;;22.96;38.60;101960.88;5003278;28;20006;-71
2022/05/08 10:44:50;;;;;;;4.00;2.53;;;;;;;23.20;36.98;101950.78;5019596;28;20025;-72
2022/05/08 10:47:36;;;;;;;5.10;2.13;;;;;;;23.36;37.60;101959.66;4996355;28;20474;-72
2022/05/08 10:50:09;;;;;;;3.75;1.90;;;;;;;23.63;37.14;101947.25;4990847;28;20470;-72
2022/05/08 10:52:42;;;;;;;3.10;1.92;;;;;;;23.97;36.33;101945.66;5010191;28;20441;-72
2022/05/08 10:55:09;;;;;;;4.33;1.80;;;;;;;24.17;35.68;101943.13;4931601;28;20120;-71
2022/05/08 10:57:35;;;;;;;3.70;2.28;;;;;;;23.73;34.97;101953.16;4950620;28;20034;-72
2022/05/08 11:00:01;;;;;;;5.25;2.22;;;;;;;23.87;35.22;101943.31;4963937;28;20190;-72
2022/05/08 11:02:59;;;;;;;3.65;1.92;;;;;;;23.95;36.16;101943.16;4957028;28;20708;-71
2022/05/08 11:05:26;;;;;;;3.60;1.60;;;;;;;24.32;35.05;101954.66;4921394;28;20021;-71
2022/05/08 11:07:52;;;;;;;3.10;1.90;;;;;;;24.66;34.04;101946.72;4951236;28;20424;-71
2022/05/08 11:10:21;;;;;;;2.65;1.60;;;;;;;24.27;34.04;101940.03;4946568;28;20002;-72
2022/05/08 11:13:11;;;;;;;2.83;1.70;;;;;;;24.22;34.04;101947.94;4947912;28;20014;-72
2022/05/08 11:15:49;;;;;;;3.70;1.95;;;;;;;24.38;34.14;101941.34;4991047;28;20022;-71
2022/05/08 11:18:15;;;;;;;3.72;1.77;;;;;;;24.67;34.16;101948.41;4982580;28;20653;-71
2022/05/08 11:20:57;;;;;;;3.13;1.60;;;;;;;24.95;33.52;101945.59;4980684;28;20034;-71
2022/05/08 11:23:27;;;;;;;3.45;1.80;;;;;;;24.91;33.21;101941.63;4978604;28;20006;-72
2022/05/08 11:25:53;;;;;;;3.03;1.75;;;;;;;25.35;34.11;101944.88;4969478;28;20596;-71
2022/05/08 11:28:20;;;;;;;3.50;1.90;;;;;;;25.07;33.27;101937.72;4971093;28;20196;-71
2022/05/08 11:30:48;;;;;;;3.45;1.60;;;;;;;25.31;33.96;101939.03;4967991;28;20023;-71
2022/05/08 11:36:08;;;;;;;3.65;1.65;;;;;;;25.29;32.32;101916.72;4981620;28;20954;-72
2022/05/08 11:38:44;;;;;;;4.53;1.80;;;;;;;25.42;32.76;101934.88;4982550;28;20152;-72